Time;durP1;ratioP1;P1;durP2;ratioP2;P2;SDS_P1;SDS_P2;PMS_P1;PMS_P2;Temp;Humidity;BMP_temperature;BMP_pressure;BME280_temperature;BME280_humidity;BME280_pressure;Samples;Min_cycle;Max_cycle;Signal;HPM_P1;HPM_P2
2023/06/18 00:00:41;;;;;;;;;;;;;;;;;;4974887;28;8611;-82
2023/06/18 00:03:07;;;;;;;;;;;;;;;;;;4974942;28;8475;-83
2023/06/18 00:05:32;;;;;;;;;;;;;;;;;;4974882;28;8503;-82
2023/06/18 00:07:58;;;;;;;;;;;;;;;;;;4974781;28;8483;-82
2023/06/18 00:10:24;;;;;;;;;;;;;;;;;;4974870;28;8497;-83
2023/06/18 00:12:49;;;;;;;;;;;;;;;;;;4974721;28;7247;-83
2023/06/18 00:15:15;;;;;;;;;;;;;;;;;;4974568;28;8549;-83
2023/06/18 00:17:41;;;;;;;;;;;;;;;;;;4974834;28;8518;-82
2023/06/18 00:20:07;;;;;;;;;;;;;;;;;;4974802;28;8576;-83
2023/06/18 00:22:38;;;;;;;;;;;;;;;;;;4974512;28;8512;-82
2023/06/18 00:25:06;;;;;;;;;;;;;;;;;;4974547;28;9001;-82
2023/06/18 00:27:33;;;;;;;;;;;;;;;;;;4974494;28;8581;-82
2023/06/18 00:29:59;;;;;;;;;;;;;;;;;;4974514;28;7323;-81
2023/06/18 00:32:25;;;;;;;;;;;;;;;;;;4974746;28;8862;-82
2023/06/18 00:34:53;;;;;;;;;;;;;;;;;;4974423;28;7255;-81
2023/06/18 00:37:20;;;;;;;;;;;;;;;;;;4974336;28;9298;-81
2023/06/18 00:39:46;;;;;;;;;;;;;;;;;;4974084;28;9125;-82
2023/06/18 00:42:13;;;;;;;;;;;;;;;;;;4973251;28;8512;-83
2023/06/18 00:44:42;;;;;;;;;;;;;;;;;;4974036;28;8996;-82
2023/06/18 00:47:11;;;;;;;;;;;;;;;;;;4974037;28;8723;-81
2023/06/18 00:49:37;;;;;;;;;;;;;;;;;;4974045;28;8980;-83
2023/06/18 00:52:05;;;;;;;;;;;;;;;;;;4973884;28;8588;-83
2023/06/18 00:54:32;;;;;;;;;;;;;;;;;;4973929;28;9116;-83
2023/06/18 00:56:59;;;;;;;;;;;;;;;;;;4973893;28;8618;-83
2023/06/18 00:59:25;;;;;;;;;;;;;;;;;;4973861;28;9314;-83
2023/06/18 01:01:55;;;;;;;;;;;;;;;;;;4973802;28;8759;-83
2023/06/18 01:04:23;;;;;;;;;;;;;;;;;;4973697;28;7138;-83
2023/06/18 01:06:53;;;;;;;;;;;;;;;;;;4973647;28;8537;-83
2023/06/18 01:09:23;;;;;;;;;;;;;;;;;;4974126;28;7142;-83
2023/06/18 01:11:52;;;;;;;;;;;;;;;;;;4973667;28;7150;-83
2023/06/18 01:14:23;;;;;;;;;;;;;;;;;;4973527;28;8620;-83
2023/06/18 01:16:56;;;;;;;;;;;;;;;;;;4973506;28;8596;-83
2023/06/18 01:19:23;;;;;;;;;;;;;;;;;;4973653;28;8958;-84
2023/06/18 01:21:56;;;;;;;;;;;;;;;;;;4989543;28;7226;-83
2023/06/18 01:24:27;;;;;;;;;;;;;;;;;;4973585;28;8929;-83
2023/06/18 01:26:56;;;;;;;;;;;;;;;;;;4973580;28;8813;-84
2023/06/18 01:29:26;;;;;;;;;;;;;;;;;;4973656;28;8929;-83
2023/06/18 01:31:53;;;;;;;;;;;;;;;;;;4973306;28;8945;-83
2023/06/18 01:34:20;;;;;;;;;;;;;;;;;;4973329;28;8845;-84
2023/06/18 01:36:56;;;;;;;;;;;;;;;;;;4973054;28;8604;-84
2023/06/18 01:39:28;;;;;;;;;;;;;;;;;;4989554;28;8930;-83
2023/06/18 01:42:01;;;;;;;;;;;;;;;;;;4989542;28;8508;-83
2023/06/18 01:44:30;;;;;;;;;;;;;;;;;;4972980;28;8684;-82
2023/06/18 01:46:58;;;;;;;;;;;;;;;;;;4972971;28;8517;-82
2023/06/18 01:49:26;;;;;;;;;;;;;;;;;;4973354;28;8583;-82
2023/06/18 01:51:52;;;;;;;;;;;;;;;;;;4973096;28;7090;-83
2023/06/18 01:54:20;;;;;;;;;;;;;;;;;;4979331;28;8487;-81
2023/06/18 01:56:46;;;;;;;;;;;;;;;;;;4979750;28;8482;-82
2023/06/18 01:59:12;;;;;;;;;;;;;;;;;;4979598;28;8535;-82
2023/06/18 02:01:40;;;;;;;;;;;;;;;;;;4979860;28;8519;-82
2023/06/18 02:04:06;;;;;;;;;;;;;;;;;;4979715;28;8906;-83
2023/06/18 02:06:31;;;;;;;;;;;;;;;;;;4979431;28;8866;-82
2023/06/18 02:08:57;;;;;;;;;;;;;;;;;;4979523;28;8511;-84
2023/06/18 02:11:23;;;;;;;;;;;;;;;;;;4979612;28;8791;-82
2023/06/18 02:13:48;;;;;;;;;;;;;;;;;;5012345;28;7256;-83
2023/06/18 02:16:14;;;;;;;;;;;;;;;;;;4979275;28;8759;-82
2023/06/18 02:18:40;;;;;;;;;;;;;;;;;;4980554;28;7289;-82
2023/06/18 02:21:07;;;;;;;;;;;;;;;;;;4979349;28;8928;-83
2023/06/18 02:23:33;;;;;;;;;;;;;;;;;;4979462;28;8812;-83
2023/06/18 02:25:58;;;;;;;;;;;;;;;;;;4978980;28;8546;-82
2023/06/18 02:28:24;;;;;;;;;;;;;;;;;;5175750;23;8536;-82
2023/06/18 02:30:50;;;;;;;;;;;;;;;;;;5014775;28;8559;-82
2023/06/18 02:33:18;;;;;;;;;;;;;;;;;;4998686;28;8539;-83
2023/06/18 02:35:43;;;;;;;;;;;;;;;;;;5015429;28;8862;-83
2023/06/18 02:38:09;;;;;;;;;;;;;;;;;;5014885;28;8578;-83
2023/06/18 02:40:35;;;;;;;;;;;;;;;;;;5015405;28;8542;-83
2023/06/18 02:43:05;;;;;;;;;;;;;;;;;;5015019;28;7340;-84
2023/06/18 02:45:31;;;;;;;;;;;;;;;;;;5015449;28;8446;-83
2023/06/18 02:47:57;;;;;;;;;;;;;;;;;;4999358;28;8544;-83
2023/06/18 02:50:22;;;;;;;;;;;;;;;;;;4999181;28;8800;-83
2023/06/18 02:52:48;;;;;;;;;;;;;;;;;;4998610;28;7435;-83
2023/06/18 02:55:14;;;;;;;;;;;;;;;;;;5015170;28;7071;-83
2023/06/18 02:57:40;;;;;;;;;;;;;;;;;;5015051;28;8787;-83
2023/06/18 03:00:11;;;;;;;;;;;;;;;;;;5014970;28;7117;-83
2023/06/18 03:02:38;;;;;;;;;;;;;;;;;;5015039;28;8882;-83
2023/06/18 03:05:04;;;;;;;;;;;;;;;;;;5012954;28;7078;-83
2023/06/18 03:07:29;;;;;;;;;;;;;;;;;;5011715;28;8456;-83
2023/06/18 03:09:55;;;;;;;;;;;;;;;;;;5012283;28;8562;-83
2023/06/18 03:12:21;;;;;;;;;;;;;;;;;;4995432;28;7284;-83
2023/06/18 03:14:46;;;;;;;;;;;;;;;;;;5011903;28;7397;-84
2023/06/18 03:17:12;;;;;;;;;;;;;;;;;;4995573;28;8667;-83
2023/06/18 03:19:38;;;;;;;;;;;;;;;;;;5011516;28;7077;-82
2023/06/18 03:22:05;;;;;;;;;;;;;;;;;;5011831;28;8890;-84
2023/06/18 03:24:30;;;;;;;;;;;;;;;;;;5011541;28;8681;-83
2023/06/18 03:26:58;;;;;;;;;;;;;;;;;;5011630;28;8880;-83
2023/06/18 03:29:30;;;;;;;;;;;;;;;;;;5011595;28;7188;-83
2023/06/18 03:31:56;;;;;;;;;;;;;;;;;;5011276;28;8461;-83
2023/06/18 03:34:22;;;;;;;;;;;;;;;;;;5011570;28;8902;-82
2023/06/18 03:36:49;;;;;;;;;;;;;;;;;;5011404;28;8838;-83
2023/06/18 03:39:15;;;;;;;;;;;;;;;;;;5011206;28;8534;-83
2023/06/18 03:41:42;;;;;;;;;;;;;;;;;;5011225;28;9199;-83
2023/06/18 03:44:07;;;;;;;;;;;;;;;;;;5011447;28;7248;-83
2023/06/18 03:46:33;;;;;;;;;;;;;;;;;;5011452;28;8833;-83
2023/06/18 03:48:59;;;;;;;;;;;;;;;;;;5010869;28;7114;-82
2023/06/18 03:51:26;;;;;;;;;;;;;;;;;;5010880;28;9031;-82
2023/06/18 03:53:52;;;;;;;;;;;;;;;;;;5010877;28;8799;-82
2023/06/18 03:56:20;;;;;;;;;;;;;;;;;;5010945;28;7288;-84
2023/06/18 03:58:48;;;;;;;;;;;;;;;;;;5010798;28;8538;-83
2023/06/18 04:01:13;;;;;;;;;;;;;;;;;;4994476;28;8570;-83
2023/06/18 04:03:39;;;;;;;;;;;;;;;;;;5011268;28;7154;-83
2023/06/18 04:06:05;;;;;;;;;;;;;;;;;;5011397;28;7091;-82
2023/06/18 04:08:31;;;;;;;;;;;;;;;;;;5010465;28;9224;-83
2023/06/18 04:10:58;;;;;;;;;;;;;;;;;;5010706;28;7172;-83
2023/06/18 04:13:24;;;;;;;;;;;;;;;;;;5011002;28;8461;-83
2023/06/18 04:15:49;;;;;;;;;;;;;;;;;;5009861;28;8474;-83
2023/06/18 04:18:15;;;;;;;;;;;;;;;;;;5010105;28;8504;-83
2023/06/18 04:20:42;;;;;;;;;;;;;;;;;;5010529;28;7285;-83
2023/06/18 04:23:08;;;;;;;;;;;;;;;;;;5010438;28;8534;-83
2023/06/18 04:25:34;;;;;;;;;;;;;;;;;;5010358;28;8549;-83
2023/06/18 04:28:01;;;;;;;;;;;;;;;;;;5010324;28;7277;-82
2023/06/18 04:30:27;;;;;;;;;;;;;;;;;;5010666;28;6941;-83
2023/06/18 04:32:52;;;;;;;;;;;;;;;;;;5010230;28;8586;-82
2023/06/18 04:35:19;;;;;;;;;;;;;;;;;;5010014;28;8495;-82
2023/06/18 04:37:45;;;;;;;;;;;;;;;;;;5010090;28;8556;-83
2023/06/18 04:40:12;;;;;;;;;;;;;;;;;;5010115;28;8661;-82
2023/06/18 04:42:38;;;;;;;;;;;;;;;;;;5010037;28;7287;-82
2023/06/18 04:45:04;;;;;;;;;;;;;;;;;;5009876;28;8544;-83
2023/06/18 04:47:30;;;;;;;;;;;;;;;;;;5010438;28;8717;-83
2023/06/18 04:49:56;;;;;;;;;;;;;;;;;;5010371;28;8542;-83
2023/06/18 04:52:22;;;;;;;;;;;;;;;;;;5009803;28;8595;-82
2023/06/18 04:54:48;;;;;;;;;;;;;;;;;;5009750;28;9116;-83
2023/06/18 04:57:13;;;;;;;;;;;;;;;;;;5009616;28;8576;-82
2023/06/18 04:59:40;;;;;;;;;;;;;;;;;;5009843;28;8842;-81
2023/06/18 05:02:06;;;;;;;;;;;;;;;;;;5009576;28;8547;-82
2023/06/18 05:04:32;;;;;;;;;;;;;;;;;;5009655;28;8519;-85
2023/06/18 05:06:57;;;;;;;;;;;;;;;;;;5011130;28;8516;-84
2023/06/18 05:09:23;;;;;;;;;;;;;;;;;;5011510;28;8627;-84
2023/06/18 05:11:49;;;;;;;;;;;;;;;;;;5000246;28;8715;-84
2023/06/18 05:14:15;;;;;;;;;;;;;;;;;;4986548;28;8528;-84
2023/06/18 05:16:40;;;;;;;;;;;;;;;;;;4989527;28;8759;-85
2023/06/18 05:19:06;;;;;;;;;;;;;;;;;;4992667;28;8642;-84
2023/06/18 05:21:32;;;;;;;;;;;;;;;;;;4987411;28;8530;-83
2023/06/18 05:23:57;;;;;;;;;;;;;;;;;;4988185;28;8537;-83
2023/06/18 05:26:23;;;;;;;;;;;;;;;;;;4982359;28;7501;-81
2023/06/18 05:28:49;;;;;;;;;;;;;;;;;;4981530;28;8704;-78
2023/06/18 05:31:15;;;;;;;;;;;;;;;;;;4992826;28;8543;-80
2023/06/18 05:33:40;;;;;;;;;;;;;;;;;;4991718;28;7348;-80
2023/06/18 05:36:06;;;;;;;;;;;;;;;;;;4979882;28;8477;-81
2023/06/18 05:38:32;;;;;;;;;;;;;;;;;;4977546;28;8969;-83
2023/06/18 05:40:58;;;;;;;;;;;;;;;;;;4986877;28;8546;-84
2023/06/18 05:43:23;;;;;;;;;;;;;;;;;;4987692;28;8850;-83
2023/06/18 05:45:49;;;;;;;;;;;;;;;;;;4991482;28;8502;-86
2023/06/18 05:48:15;;;;;;;;;;;;;;;;;;4984086;28;8548;-85
2023/06/18 05:50:41;;;;;;;;;;;;;;;;;;4988702;28;8557;-84
2023/06/18 05:53:06;;;;;;;;;;;;;;;;;;4992250;28;8494;-84
2023/06/18 05:55:32;;;;;;;;;;;;;;;;;;4992569;28;8515;-85
2023/06/18 05:57:58;;;;;;;;;;;;;;;;;;4991648;28;8526;-84
2023/06/18 06:00:23;;;;;;;;;;;;;;;;;;4991190;28;8507;-85
2023/06/18 06:02:50;;;;;;;;;;;;;;;;;;4983184;28;8495;-84
2023/06/18 06:05:16;;;;;;;;;;;;;;;;;;4983337;28;8636;-83
2023/06/18 06:07:41;;;;;;;;;;;;;;;;;;4985311;28;8519;-83
2023/06/18 06:10:07;;;;;;;;;;;;;;;;;;5004375;28;8426;-87
2023/06/18 06:12:33;;;;;;;;;;;;;;;;;;4996248;28;8480;-81
2023/06/18 06:14:58;;;;;;;;;;;;;;;;;;4985101;28;8544;-84
2023/06/18 06:17:24;;;;;;;;;;;;;;;;;;4998289;28;8531;-83
2023/06/18 06:19:49;;;;;;;;;;;;;;;;;;4987813;28;7272;-84
2023/06/18 06:22:15;;;;;;;;;;;;;;;;;;5001708;28;8785;-85
2023/06/18 06:24:41;;;;;;;;;;;;;;;;;;4983701;28;8839;-85
2023/06/18 06:27:07;;;;;;;;;;;;;;;;;;4972658;28;8557;-86
2023/06/18 06:29:32;;;;;;;;;;;;;;;;;;4973145;28;7588;-85
2023/06/18 06:31:58;;;;;;;;;;;;;;;;;;4973027;28;8465;-85
2023/06/18 06:34:24;;;;;;;;;;;;;;;;;;4980582;28;8545;-83
2023/06/18 06:36:50;;;;;;;;;;;;;;;;;;4992172;28;8923;-84
2023/06/18 06:39:16;;;;;;;;;;;;;;;;;;4992242;28;8837;-84
2023/06/18 06:41:42;;;;;;;;;;;;;;;;;;4995890;28;8549;-84
2023/06/18 06:44:08;;;;;;;;;;;;;;;;;;4988918;28;8531;-84
2023/06/18 06:46:34;;;;;;;;;;;;;;;;;;4993774;28;8610;-84
2023/06/18 06:49:00;;;;;;;;;;;;;;;;;;4995902;28;8570;-85
2023/06/18 06:51:26;;;;;;;;;;;;;;;;;;4995607;28;8536;-83
2023/06/18 06:53:51;;;;;;;;;;;;;;;;;;4995566;28;6952;-83
2023/06/18 06:56:17;;;;;;;;;;;;;;;;;;4992094;28;8539;-83
2023/06/18 06:58:43;;;;;;;;;;;;;;;;;;4992496;28;8529;-83
2023/06/18 07:01:09;;;;;;;;;;;;;;;;;;4992274;28;8485;-84
2023/06/18 07:03:35;;;;;;;;;;;;;;;;;;4992166;28;8628;-84
2023/06/18 07:06:03;;;;;;;;;;;;;;;;;;4991832;28;8615;-84
2023/06/18 07:08:31;;;;;;;;;;;;;;;;;;4992699;28;7183;-83
2023/06/18 07:10:56;;;;;;;;;;;;;;;;;;4987932;28;8520;-83
2023/06/18 07:13:22;;;;;;;;;;;;;;;;;;4998776;28;8578;-80
2023/06/18 07:15:47;;;;;;;;;;;;;;;;;;4993744;28;8783;-83
2023/06/18 07:18:13;;;;;;;;;;;;;;;;;;5011346;28;8620;-83
2023/06/18 07:20:39;;;;;;;;;;;;;;;;;;5011456;28;8611;-84
2023/06/18 07:23:05;;;;;;;;;;;;;;;;;;5011334;28;8536;-85
2023/06/18 07:25:31;;;;;;;;;;;;;;;;;;5011157;28;8551;-84
2023/06/18 07:27:56;;;;;;;;;;;;;;;;;;5011118;28;7132;-84
2023/06/18 07:30:22;;;;;;;;;;;;;;;;;;5011407;28;8959;-84
2023/06/18 07:32:48;;;;;;;;;;;;;;;;;;5011261;28;8528;-84
2023/06/18 07:35:13;;;;;;;;;;;;;;;;;;5011114;28;7142;-82
2023/06/18 07:37:39;;;;;;;;;;;;;;;;;;5011018;28;8531;-85
2023/06/18 07:40:05;;;;;;;;;;;;;;;;;;5010998;28;8863;-83
2023/06/18 07:42:31;;;;;;;;;;;;;;;;;;5010914;28;8746;-83
2023/06/18 07:44:57;;;;;;;;;;;;;;;;;;5010895;28;8543;-83
2023/06/18 07:47:23;;;;;;;;;;;;;;;;;;5010934;28;8596;-82
2023/06/18 07:49:48;;;;;;;;;;;;;;;;;;5011171;28;8470;-83
2023/06/18 07:52:14;;;;;;;;;;;;;;;;;;5010439;28;8523;-83
2023/06/18 07:54:40;;;;;;;;;;;;;;;;;;5011023;28;8614;-84
2023/06/18 07:57:05;;;;;;;;;;;;;;;;;;5010481;28;8569;-82
2023/06/18 07:59:31;;;;;;;;;;;;;;;;;;5010730;28;8816;-85
2023/06/18 08:01:57;;;;;;;;;;;;;;;;;;5010440;28;8511;-85
2023/06/18 08:04:22;;;;;;;;;;;;;;;;;;5011134;28;8589;-84
2023/06/18 08:06:50;;;;;;;;;;;;;;;;;;5010494;28;8688;-85
2023/06/18 08:09:17;;;;;;;;;;;;;;;;;;5007238;28;8551;-84
2023/06/18 08:11:43;;;;;;;;;;;;;;;;;;5010674;28;8794;-84
2023/06/18 08:14:08;;;;;;;;;;;;;;;;;;5003971;28;8514;-85
2023/06/18 08:16:34;;;;;;;;;;;;;;;;;;4974637;28;8565;-85
2023/06/18 08:19:00;;;;;;;;;;;;;;;;;;4974576;28;8542;-84
2023/06/18 08:21:26;;;;;;;;;;;;;;;;;;4990047;28;7681;-85
2023/06/18 08:23:52;;;;;;;;;;;;;;;;;;5010414;28;8591;-84
2023/06/18 08:26:19;;;;;;;;;;;;;;;;;;5010431;28;8570;-83
2023/06/18 08:28:45;;;;;;;;;;;;;;;;;;4990724;28;8598;-84
2023/06/18 08:31:11;;;;;;;;;;;;;;;;;;4974263;28;8544;-84
2023/06/18 08:33:36;;;;;;;;;;;;;;;;;;4974429;28;8531;-85
2023/06/18 08:36:02;;;;;;;;;;;;;;;;;;4974129;28;8651;-84
2023/06/18 08:38:28;;;;;;;;;;;;;;;;;;4974287;28;6951;-86
2023/06/18 08:41:01;;;;;;;;;;;;;;;;;;4974162;28;8531;-84
2023/06/18 08:43:32;;;;;;;;;;;;;;;;;;4974124;28;8864;-82
2023/06/18 08:46:02;;;;;;;;;;;;;;;;;;4979185;28;8622;-83
2023/06/18 08:48:29;;;;;;;;;;;;;;;;;;4992502;28;7488;-84
2023/06/18 08:51:02;;;;;;;;;;;;;;;;;;4992414;28;8609;-84
2023/06/18 08:53:37;;;;;;;;;;;;;;;;;;4993456;28;8555;-84
2023/06/18 08:56:04;;;;;;;;;;;;;;;;;;4980068;28;8431;-85
2023/06/18 08:58:33;;;;;;;;;;;;;;;;;;4985451;28;8511;-85
2023/06/18 09:01:00;;;;;;;;;;;;;;;;;;4984437;28;7127;-84
2023/06/18 09:03:27;;;;;;;;;;;;;;;;;;4994340;28;8550;-84
2023/06/18 09:05:53;;;;;;;;;;;;;;;;;;4987132;28;8919;-85
2023/06/18 09:08:19;;;;;;;;;;;;;;;;;;5009692;28;9494;-85
2023/06/18 09:10:45;;;;;;;;;;;;;;;;;;5009297;28;9022;-84
2023/06/18 09:13:11;;;;;;;;;;;;;;;;;;5009270;28;8494;-84
2023/06/18 09:15:36;;;;;;;;;;;;;;;;;;5009288;28;8506;-84
2023/06/18 09:18:02;;;;;;;;;;;;;;;;;;5008708;28;8587;-85
2023/06/18 09:20:32;;;;;;;;;;;;;;;;;;5008873;28;8515;-84
2023/06/18 09:23:05;;;;;;;;;;;;;;;;;;5009154;28;8553;-85
2023/06/18 09:25:33;;;;;;;;;;;;;;;;;;5009062;28;8564;-83
2023/06/18 09:28:00;;;;;;;;;;;;;;;;;;5009130;28;8681;-85
2023/06/18 09:30:26;;;;;;;;;;;;;;;;;;5008867;28;8460;-85
2023/06/18 09:32:53;;;;;;;;;;;;;;;;;;5009125;28;8617;-84
2023/06/18 09:35:19;;;;;;;;;;;;;;;;;;5009203;28;8756;-85
2023/06/18 09:37:45;;;;;;;;;;;;;;;;;;5009166;28;8571;-84
2023/06/18 09:40:16;;;;;;;;;;;;;;;;;;5009254;28;8708;-84
2023/06/18 09:42:43;;;;;;;;;;;;;;;;;;5008942;28;8636;-85
2023/06/18 09:45:09;;;;;;;;;;;;;;;;;;5009406;28;8530;-84
2023/06/18 09:47:37;;;;;;;;;;;;;;;;;;5008915;28;8535;-85
2023/06/18 09:50:03;;;;;;;;;;;;;;;;;;5009261;28;8545;-83
2023/06/18 09:52:28;;;;;;;;;;;;;;;;;;5008948;28;8746;-85
2023/06/18 09:54:54;;;;;;;;;;;;;;;;;;5008891;28;8644;-84
2023/06/18 09:57:20;;;;;;;;;;;;;;;;;;5008932;28;8607;-85
2023/06/18 10:00:08;;;;;;;;;;;;;;;;;;5008687;28;8543;-85
2023/06/18 10:02:37;;;;;;;;;;;;;;;;;;5009250;28;8777;-85
2023/06/18 10:05:02;;;;;;;;;;;;;;;;;;5008848;28;8543;-85
2023/06/18 10:07:30;;;;;;;;;;;;;;;;;;5008879;28;7127;-85
2023/06/18 10:09:56;;;;;;;;;;;;;;;;;;5008561;28;7169;-86
2023/06/18 10:12:21;;;;;;;;;;;;;;;;;;5008837;28;8535;-86
2023/06/18 10:14:53;;;;;;;;;;;;;;;;;;5011553;28;8585;-84
2023/06/18 10:17:26;;;;;;;;;;;;;;;;;;5012519;28;8617;-83
2023/06/18 10:20:03;;;;;;;;;;;;;;;;;;5012818;28;9430;-86
2023/06/18 10:22:33;;;;;;;;;;;;;;;;;;5012842;28;8495;-85
2023/06/18 10:25:03;;;;;;;;;;;;;;;;;;5012602;28;8401;-87
2023/06/18 10:27:29;;;;;;;;;;;;;;;;;;5012307;28;8533;-86
2023/06/18 10:29:59;;;;;;;;;;;;;;;;;;5013037;28;9375;-87
2023/06/18 10:32:26;;;;;;;;;;;;;;;;;;5012511;28;8850;-86
2023/06/18 10:34:53;;;;;;;;;;;;;;;;;;5012459;28;7154;-86
2023/06/18 10:37:20;;;;;;;;;;;;;;;;;;5012407;28;8613;-87
2023/06/18 10:39:47;;;;;;;;;;;;;;;;;;5012263;28;8833;-86
2023/06/18 10:42:16;;;;;;;;;;;;;;;;;;5012488;28;8508;-86
2023/06/18 10:44:48;;;;;;;;;;;;;;;;;;5012909;28;8529;-86
2023/06/18 10:47:18;;;;;;;;;;;;;;;;;;5012084;28;7236;-86
2023/06/18 10:50:02;;;;;;;;;;;;;;;;;;5012192;28;8855;-83
2023/06/18 10:52:40;;;;;;;;;;;;;;;;;;5012074;28;8838;-85
2023/06/18 10:55:07;;;;;;;;;;;;;;;;;;5012013;28;8528;-86
2023/06/18 10:57:43;;;;;;;;;;;;;;;;;;5012324;28;8537;-85
2023/06/18 11:00:17;;;;;;;;;;;;;;;;;;5012312;28;8561;-86
2023/06/18 11:02:44;;;;;;;;;;;;;;;;;;5011821;28;8555;-86
2023/06/18 11:05:33;;;;;;;;;;;;;;;;;;5011911;28;7305;-86
2023/06/18 11:08:03;;;;;;;;;;;;;;;;;;5011742;28;8527;-86
2023/06/18 11:10:33;;;;;;;;;;;;;;;;;;5011995;28;8617;-86
2023/06/18 11:13:01;;;;;;;;;;;;;;;;;;5012060;28;8784;-85
2023/06/18 11:15:27;;;;;;;;;;;;;;;;;;5011771;28;8437;-86
2023/06/18 11:17:54;;;;;;;;;;;;;;;;;;5007900;28;7192;-87
2023/06/18 11:20:21;;;;;;;;;;;;;;;;;;4999234;28;8727;-88
2023/06/18 11:22:48;;;;;;;;;;;;;;;;;;4997122;28;8721;-87
2023/06/18 11:25:15;;;;;;;;;;;;;;;;;;5000718;28;8553;-85
2023/06/18 11:27:42;;;;;;;;;;;;;;;;;;5001389;28;8555;-85
2023/06/18 11:30:12;;;;;;;;;;;;;;;;;;4984017;28;9440;-86
2023/06/18 11:32:39;;;;;;;;;;;;;;;;;;4981737;28;8644;-85
2023/06/18 11:35:08;;;;;;;;;;;;;;;;;;4994917;28;8604;-85
2023/06/18 11:37:45;;;;;;;;;;;;;;;;;;4983964;28;8830;-85
2023/06/18 11:40:11;;;;;;;;;;;;;;;;;;4994170;28;8933;-85
2023/06/18 11:42:38;;;;;;;;;;;;;;;;;;5010956;28;8856;-86
2023/06/18 11:45:05;;;;;;;;;;;;;;;;;;5011349;28;8646;-85
2023/06/18 11:47:31;;;;;;;;;;;;;;;;;;5011157;28;8552;-84
2023/06/18 11:49:58;;;;;;;;;;;;;;;;;;5011151;28;8643;-85
2023/06/18 11:52:25;;;;;;;;;;;;;;;;;;5010866;28;9742;-85
2023/06/18 11:54:52;;;;;;;;;;;;;;;;;;5010767;28;8480;-85
2023/06/18 11:57:18;;;;;;;;;;;;;;;;;;5010901;28;8828;-84
2023/06/18 11:59:45;;;;;;;;;;;;;;;;;;5010516;28;7343;-83
2023/06/18 12:02:12;;;;;;;;;;;;;;;;;;5010755;28;8637;-83
2023/06/18 12:04:38;;;;;;;;;;;;;;;;;;5010502;28;8706;-84
2023/06/18 12:07:04;;;;;;;;;;;;;;;;;;5010617;28;8860;-85
2023/06/18 12:09:32;;;;;;;;;;;;;;;;;;5010750;28;8747;-86
2023/06/18 12:12:18;;;;;;;;;;;;;;;;;;5010553;28;8559;-84
2023/06/18 12:14:49;;;;;;;;;;;;;;;;;;5010515;28;7249;-84
2023/06/18 12:17:28;;;;;;;;;;;;;;;;;;5010287;28;8499;-82
2023/06/18 12:19:59;;;;;;;;;;;;;;;;;;5010425;28;8550;-83
2023/06/18 12:22:26;;;;;;;;;;;;;;;;;;5000166;28;7270;-85
2023/06/18 12:24:52;;;;;;;;;;;;;;;;;;4974322;28;8525;-84
2023/06/18 12:27:18;;;;;;;;;;;;;;;;;;4974406;28;8510;-84
2023/06/18 12:29:45;;;;;;;;;;;;;;;;;;4985556;28;8560;-85
2023/06/18 12:32:12;;;;;;;;;;;;;;;;;;5010398;28;8718;-84
2023/06/18 12:34:39;;;;;;;;;;;;;;;;;;5010072;28;8606;-85
2023/06/18 12:37:05;;;;;;;;;;;;;;;;;;5008943;28;8543;-84
2023/06/18 12:39:31;;;;;;;;;;;;;;;;;;5010194;28;8897;-84
2023/06/18 12:41:57;;;;;;;;;;;;;;;;;;5009988;28;8520;-85
2023/06/18 12:44:24;;;;;;;;;;;;;;;;;;5010026;28;8904;-86
2023/06/18 12:46:52;;;;;;;;;;;;;;;;;;5009937;28;8479;-86
2023/06/18 12:49:17;;;;;;;;;;;;;;;;;;5009707;28;8503;-83
2023/06/18 12:51:44;;;;;;;;;;;;;;;;;;5009922;28;7137;-85
2023/06/18 12:54:14;;;;;;;;;;;;;;;;;;5009912;28;8531;-83
2023/06/18 12:56:50;;;;;;;;;;;;;;;;;;4998409;28;8478;-84
2023/06/18 12:59:20;;;;;;;;;;;;;;;;;;5009541;28;8570;-85
2023/06/18 13:01:46;;;;;;;;;;;;;;;;;;5009575;28;8614;-85
2023/06/18 13:04:13;;;;;;;;;;;;;;;;;;5009562;28;7361;-84
2023/06/18 13:06:39;;;;;;;;;;;;;;;;;;5009637;28;9294;-84
2023/06/18 13:09:05;;;;;;;;;;;;;;;;;;5009550;28;7923;-86
2023/06/18 13:11:32;;;;;;;;;;;;;;;;;;5009648;28;8526;-86
2023/06/18 13:13:58;;;;;;;;;;;;;;;;;;5008972;28;8544;-85
2023/06/18 13:16:24;;;;;;;;;;;;;;;;;;4993108;28;8580;-87
2023/06/18 13:18:50;;;;;;;;;;;;;;;;;;4988021;28;8503;-84
2023/06/18 13:21:15;;;;;;;;;;;;;;;;;;4989515;28;8519;-85
2023/06/18 13:23:42;;;;;;;;;;;;;;;;;;4992723;28;8528;-85
2023/06/18 13:26:07;;;;;;;;;;;;;;;;;;4992951;28;9001;-85
2023/06/18 13:28:33;;;;;;;;;;;;;;;;;;4989259;28;8522;-86
2023/06/18 13:30:59;;;;;;;;;;;;;;;;;;4994749;28;8510;-84
2023/06/18 13:33:25;;;;;;;;;;;;;;;;;;4973128;28;8578;-84
2023/06/18 13:35:50;;;;;;;;;;;;;;;;;;4973252;28;9060;-84
2023/06/18 13:38:16;;;;;;;;;;;;;;;;;;4973260;28;8854;-84
2023/06/18 13:40:42;;;;;;;;;;;;;;;;;;4973578;28;8688;-84
2023/06/18 13:43:11;;;;;;;;;;;;;;;;;;4973505;28;7551;-84
2023/06/18 13:45:38;;;;;;;;;;;;;;;;;;4973429;28;8762;-85
2023/06/18 13:48:04;;;;;;;;;;;;;;;;;;4972882;28;8918;-84
2023/06/18 13:50:30;;;;;;;;;;;;;;;;;;4973299;28;7428;-84
2023/06/18 13:52:56;;;;;;;;;;;;;;;;;;4973094;28;8841;-84
2023/06/18 13:55:21;;;;;;;;;;;;;;;;;;4973254;28;8611;-84
2023/06/18 13:57:48;;;;;;;;;;;;;;;;;;4972999;28;8507;-85
2023/06/18 14:00:14;;;;;;;;;;;;;;;;;;4973366;28;8808;-84
2023/06/18 14:02:40;;;;;;;;;;;;;;;;;;4986759;28;8993;-85
2023/06/18 14:05:07;;;;;;;;;;;;;;;;;;5008890;28;8508;-83
2023/06/18 14:07:32;;;;;;;;;;;;;;;;;;5008745;28;8469;-84
2023/06/18 14:09:58;;;;;;;;;;;;;;;;;;5008871;28;8442;-84
2023/06/18 14:12:27;;;;;;;;;;;;;;;;;;5008618;28;8571;-84
2023/06/18 14:14:52;;;;;;;;;;;;;;;;;;5008573;28;8571;-84
2023/06/18 14:17:18;;;;;;;;;;;;;;;;;;5008606;28;7248;-83
2023/06/18 14:19:44;;;;;;;;;;;;;;;;;;5002828;28;8563;-84
2023/06/18 14:22:10;;;;;;;;;;;;;;;;;;4989139;28;8718;-84
2023/06/18 14:24:36;;;;;;;;;;;;;;;;;;4989065;28;8858;-84
2023/06/18 14:27:03;;;;;;;;;;;;;;;;;;4988657;28;8928;-84
2023/06/18 14:29:32;;;;;;;;;;;;;;;;;;5002828;28;8530;-84
2023/06/18 14:31:58;;;;;;;;;;;;;;;;;;4981788;28;9302;-84
2023/06/18 14:34:24;;;;;;;;;;;;;;;;;;4972479;28;8667;-84
2023/06/18 14:36:50;;;;;;;;;;;;;;;;;;4972860;28;8443;-84
2023/06/18 14:39:15;;;;;;;;;;;;;;;;;;4974522;28;8538;-85
2023/06/18 14:41:41;;;;;;;;;;;;;;;;;;4988884;28;8616;-83
2023/06/18 14:44:07;;;;;;;;;;;;;;;;;;4992145;28;8539;-84
2023/06/18 14:46:33;;;;;;;;;;;;;;;;;;4972678;28;8920;-84
2023/06/18 14:48:58;;;;;;;;;;;;;;;;;;4972798;28;7151;-85
2023/06/18 14:51:24;;;;;;;;;;;;;;;;;;4972547;28;8535;-84
2023/06/18 14:53:50;;;;;;;;;;;;;;;;;;4972898;28;8609;-85
2023/06/18 14:56:19;;;;;;;;;;;;;;;;;;4972763;28;8552;-85
2023/06/18 14:58:45;;;;;;;;;;;;;;;;;;4973898;28;7500;-85
2023/06/18 15:01:11;;;;;;;;;;;;;;;;;;4982515;28;8524;-88
2023/06/18 15:03:37;;;;;;;;;;;;;;;;;;4985330;28;8530;-87
2023/06/18 15:06:02;;;;;;;;;;;;;;;;;;4995432;28;8526;-86
2023/06/18 15:08:28;;;;;;;;;;;;;;;;;;4995615;28;8572;-86
2023/06/18 15:10:54;;;;;;;;;;;;;;;;;;4995432;28;8571;-86
2023/06/18 15:13:20;;;;;;;;;;;;;;;;;;4995622;28;8528;-86
2023/06/18 15:15:46;;;;;;;;;;;;;;;;;;4995141;28;8790;-86
2023/06/18 15:18:12;;;;;;;;;;;;;;;;;;4995430;28;8742;-87
2023/06/18 15:20:38;;;;;;;;;;;;;;;;;;4995176;28;8577;-86
2023/06/18 15:23:05;;;;;;;;;;;;;;;;;;4992716;28;8533;-87
2023/06/18 15:25:30;;;;;;;;;;;;;;;;;;4984927;28;8722;-86
2023/06/18 15:27:56;;;;;;;;;;;;;;;;;;4984495;28;8601;-86
2023/06/18 15:30:22;;;;;;;;;;;;;;;;;;4981810;28;8903;-86
2023/06/18 15:32:47;;;;;;;;;;;;;;;;;;5003653;28;8826;-86
2023/06/18 15:35:13;;;;;;;;;;;;;;;;;;4978903;28;7310;-86
2023/06/18 15:37:39;;;;;;;;;;;;;;;;;;4993653;28;8567;-86
2023/06/18 15:40:05;;;;;;;;;;;;;;;;;;4995285;28;9267;-86
2023/06/18 15:42:31;;;;;;;;;;;;;;;;;;4980582;28;8430;-87
2023/06/18 15:44:57;;;;;;;;;;;;;;;;;;4983727;28;7341;-86
2023/06/18 15:47:22;;;;;;;;;;;;;;;;;;4997918;28;8816;-86
2023/06/18 15:49:48;;;;;;;;;;;;;;;;;;4984494;28;7388;-86
2023/06/18 15:52:15;;;;;;;;;;;;;;;;;;5001937;28;8575;-87
2023/06/18 15:54:41;;;;;;;;;;;;;;;;;;4981629;28;8816;-89
2023/06/18 15:57:07;;;;;;;;;;;;;;;;;;4984211;28;7349;-87
2023/06/18 15:59:33;;;;;;;;;;;;;;;;;;4984918;28;8858;-86
2023/06/18 16:01:58;;;;;;;;;;;;;;;;;;4975713;28;8490;-86
2023/06/18 16:04:24;;;;;;;;;;;;;;;;;;4984243;28;9425;-87
2023/06/18 16:06:50;;;;;;;;;;;;;;;;;;4995249;28;7263;-87
2023/06/18 16:09:16;;;;;;;;;;;;;;;;;;4995291;28;8835;-84
2023/06/18 16:11:42;;;;;;;;;;;;;;;;;;4994635;28;8893;-84
2023/06/18 16:14:07;;;;;;;;;;;;;;;;;;4996920;28;8486;-85
2023/06/18 16:16:33;;;;;;;;;;;;;;;;;;4994921;28;8537;-86
2023/06/18 16:18:59;;;;;;;;;;;;;;;;;;4994928;28;8488;-85
2023/06/18 16:21:24;;;;;;;;;;;;;;;;;;4995260;28;8752;-84
2023/06/18 16:23:54;;;;;;;;;;;;;;;;;;4993610;28;8508;-84
2023/06/18 16:26:29;;;;;;;;;;;;;;;;;;4975765;28;8443;-84
2023/06/18 16:28:54;;;;;;;;;;;;;;;;;;4975001;28;8594;-84
2023/06/18 16:31:21;;;;;;;;;;;;;;;;;;4976041;28;8593;-84
2023/06/18 16:33:47;;;;;;;;;;;;;;;;;;4975366;28;8752;-84
2023/06/18 16:36:13;;;;;;;;;;;;;;;;;;4975211;28;8562;-83
2023/06/18 16:38:39;;;;;;;;;;;;;;;;;;4975017;28;8824;-84
2023/06/18 16:41:04;;;;;;;;;;;;;;;;;;4975085;28;8843;-85
2023/06/18 16:43:30;;;;;;;;;;;;;;;;;;4979098;28;8568;-85
2023/06/18 16:45:56;;;;;;;;;;;;;;;;;;5010833;28;8941;-84
2023/06/18 16:48:22;;;;;;;;;;;;;;;;;;5010116;28;7303;-84
2023/06/18 16:50:48;;;;;;;;;;;;;;;;;;4991129;28;7351;-85
2023/06/18 16:53:13;;;;;;;;;;;;;;;;;;4991979;28;8415;-84
2023/06/18 16:55:39;;;;;;;;;;;;;;;;;;4994938;28;8547;-84
2023/06/18 16:58:09;;;;;;;;;;;;;;;;;;5004975;28;8877;-84
2023/06/18 17:00:36;;;;;;;;;;;;;;;;;;4985827;28;8563;-86